Time;durP1;ratioP1;P1;durP2;ratioP2;P2;SDS_P1;SDS_P2;PMS_P1;PMS_P2;Temp;Humidity;BMP_temperature;BMP_pressure;BME280_temperature;BME280_humidity;BME280_pressure;Samples;Min_cycle;Max_cycle;Signal;HPM_P1;HPM_P2
2021/03/17 05:02:31;;;;;;;3.22;2.53;;;0.70;99.90;;;;;;5000555;23;20274;-70
2021/03/17 05:04:58;;;;;;;3.63;2.50;;;0.80;99.90;;;;;;4904997;29;20214;-74
2021/03/17 05:07:27;;;;;;;6.22;2.58;;;0.70;99.90;;;;;;4918195;29;20214;-74
2021/03/17 05:09:54;;;;;;;3.75;2.72;;;0.70;99.90;;;;;;4909381;29;20564;-74
2021/03/17 05:12:21;;;;;;;2.47;2.28;;;0.70;99.90;;;;;;4904459;29;20231;-74
2021/03/17 05:14:49;;;;;;;2.78;2.58;;;0.70;99.90;;;;;;4901378;29;20211;-74
2021/03/17 05:17:19;;;;;;;3.58;2.40;;;0.70;99.90;;;;;;4896967;29;20290;-74
2021/03/17 05:19:48;;;;;;;4.47;2.60;;;0.70;99.90;;;;;;4900823;29;20220;-74
2021/03/17 05:22:15;;;;;;;7.78;2.97;;;0.70;99.90;;;;;;4883333;29;20231;-74
2021/03/17 05:24:42;;;;;;;3.67;3.38;;;0.60;99.90;;;;;;4895153;29;20283;-71
2021/03/17 05:27:14;;;;;;;6.18;3.33;;;0.60;99.90;;;;;;4902046;29;20227;-71
2021/03/17 05:29:42;;;;;;;3.25;2.40;;;0.70;99.90;;;;;;4900444;29;20995;-71
2021/03/17 05:32:10;;;;;;;4.82;3.40;;;0.70;99.90;;;;;;4895491;29;20722;-75
2021/03/17 05:34:41;;;;;;;10.05;3.78;;;0.60;99.90;;;;;;4895987;29;20211;-75
2021/03/17 05:37:08;;;;;;;3.40;3.20;;;0.70;99.90;;;;;;4901899;29;20635;-74
2021/03/17 05:39:34;;;;;;;6.60;2.53;;;0.60;99.90;;;;;;4905785;29;20223;-74
2021/03/17 05:42:00;;;;;;;2.78;2.55;;;0.70;99.90;;;;;;4904793;29;20225;-74
2021/03/17 05:44:27;;;;;;;6.70;4.20;;;0.70;99.90;;;;;;4900994;29;20275;-74
2021/03/17 05:46:53;;;;;;;3.60;3.25;;;0.60;99.90;;;;;;4900412;29;20222;-76
2021/03/17 05:49:20;;;;;;;6.05;2.92;;;0.70;99.90;;;;;;4901189;29;20668;-75
2021/03/17 05:51:47;;;;;;;6.07;4.15;;;0.70;99.90;;;;;;4900127;29;20639;-72
2021/03/17 05:54:14;;;;;;;6.03;3.40;;;0.70;99.90;;;;;;4900807;29;20656;-75
2021/03/17 05:56:41;;;;;;;6.05;3.28;;;0.70;99.90;;;;;;4900268;29;20215;-75
2021/03/17 05:59:09;;;;;;;5.15;2.97;;;0.70;99.90;;;;;;4899721;29;20234;-75
2021/03/17 06:01:36;;;;;;;6.55;3.67;;;0.70;99.90;;;;;;4893148;29;20432;-71
2021/03/17 06:04:03;;;;;;;3.72;2.70;;;0.70;99.90;;;;;;4881083;29;20706;-70
2021/03/17 06:06:33;;;;;;;5.82;4.10;;;0.70;99.90;;;;;;4892826;29;20211;-73
2021/03/17 06:09:01;;;;;;;4.60;3.38;;;0.70;99.90;;;;;;4901301;29;20222;-74
2021/03/17 06:11:31;;;;;;;10.13;3.88;;;0.80;99.90;;;;;;4893510;29;20231;-73
2021/03/17 06:13:58;;;;;;;5.80;3.90;;;0.90;99.90;;;;;;4881379;29;20310;-74
2021/03/17 06:16:25;;;;;;;6.07;4.07;;;0.90;99.90;;;;;;4898134;29;20656;-73
2021/03/17 06:18:55;;;;;;;6.15;3.97;;;1.00;99.90;;;;;;4899419;29;20279;-74
2021/03/17 06:21:21;;;;;;;8.40;4.85;;;1.10;99.90;;;;;;4898817;29;20548;-73
2021/03/17 06:23:48;;;;;;;10.00;4.60;;;1.10;99.90;;;;;;4899674;29;20279;-73
2021/03/17 06:26:15;;;;;;;13.13;5.07;;;1.20;99.90;;;;;;4897603;29;20295;-73
2021/03/17 06:28:44;;;;;;;8.35;5.05;;;1.30;99.90;;;;;;4883811;29;20691;-73
2021/03/17 06:31:11;;;;;;;4.75;4.20;;;1.30;99.90;;;;;;4881592;29;20236;-72
2021/03/17 06:33:38;;;;;;;6.85;4.07;;;1.40;99.90;;;;;;4891813;29;20280;-73
2021/03/17 06:36:15;;;;;;;9.20;4.35;;;1.40;99.90;;;;;;4901320;29;20218;-73
2021/03/17 06:38:42;;;;;;;5.40;3.50;;;1.50;99.90;;;;;;4912528;29;20206;-73
2021/03/17 06:41:08;;;;;;;5.82;3.47;;;1.60;99.90;;;;;;4880951;29;20231;-73
2021/03/17 06:43:40;;;;;;;6.57;4.38;;;1.60;99.90;;;;;;4881340;29;20419;-71
2021/03/17 06:46:09;;;;;;;5.68;3.50;;;1.70;99.90;;;;;;4883886;29;20271;-70
2021/03/17 06:48:37;;;;;;;3.50;3.20;;;1.80;99.90;;;;;;4880251;29;20243;-70
2021/03/17 06:51:07;;;;;;;5.47;3.50;;;1.90;99.90;;;;;;4898038;29;20243;-71
2021/03/17 06:53:38;;;;;;;5.80;3.17;;;1.90;99.90;;;;;;4899049;29;20210;-71
2021/03/17 06:56:15;;;;;;;3.53;2.90;;;2.00;99.90;;;;;;4882129;29;20208;-70
2021/03/17 06:58:43;;;;;;;6.47;3.40;;;2.10;99.90;;;;;;4879690;29;20211;-70
2021/03/17 07:01:33;;;;;;;6.75;2.88;;;2.10;99.90;;;;;;4894834;29;20238;-70
2021/03/17 07:04:01;;;;;;;3.17;2.67;;;2.20;99.90;;;;;;4898580;29;20219;-70
2021/03/17 07:06:29;;;;;;;7.00;3.20;;;2.40;99.90;;;;;;4897749;29;20226;-70
2021/03/17 07:08:56;;;;;;;4.00;3.70;;;2.40;99.90;;;;;;4899577;29;20211;-74
2021/03/17 07:11:24;;;;;;;9.38;5.93;;;2.50;99.90;;;;;;4893081;29;20239;-73
2021/03/17 07:13:56;;;;;;;5.47;4.07;;;2.60;99.90;;;;;;4892127;29;20219;-75
2021/03/17 07:16:34;;;;;;;7.63;4.13;;;2.60;99.90;;;;;;4898143;29;20204;-74
2021/03/17 07:19:01;;;;;;;4.88;3.30;;;2.70;99.90;;;;;;4898471;29;20479;-72
2021/03/17 07:21:35;;;;;;;4.82;3.33;;;2.80;99.90;;;;;;4897760;29;20310;-74
2021/03/17 07:24:02;;;;;;;3.67;3.38;;;2.90;99.90;;;;;;4897790;29;20230;-73
2021/03/17 07:26:30;;;;;;;4.25;3.75;;;3.00;99.90;;;;;;4898204;29;20215;-73
2021/03/17 07:28:58;;;;;;;4.68;3.70;;;3.10;99.90;;;;;;4898137;29;20211;-74
2021/03/17 07:31:28;;;;;;;7.38;5.18;;;3.10;99.90;;;;;;4897216;29;20282;-72
2021/03/17 07:34:06;;;;;;;3.78;3.67;;;3.10;99.90;;;;;;4896408;29;20211;-74
2021/03/17 07:36:36;;;;;;;4.72;3.25;;;3.20;99.90;;;;;;4897508;29;20259;-72
2021/03/17 07:39:07;;;;;;;2.92;2.60;;;3.30;99.90;;;;;;4895192;29;20295;-73
2021/03/17 07:41:34;;;;;;;4.35;2.60;;;3.40;99.90;;;;;;4898231;29;20238;-73
2021/03/17 07:44:04;;;;;;;2.47;2.10;;;3.50;99.90;;;;;;4897524;29;20670;-74
2021/03/17 07:46:31;;;;;;;3.13;2.67;;;3.60;99.90;;;;;;4896868;29;20203;-74
2021/03/17 07:49:00;;;;;;;4.97;2.38;;;3.60;99.90;;;;;;4897375;29;20298;-73
2021/03/17 07:51:27;;;;;;;6.32;2.55;;;3.70;99.90;;;;;;4895323;29;20238;-73
2021/03/17 07:53:55;;;;;;;3.83;2.75;;;3.70;99.90;;;;;;4886277;29;20207;-73
2021/03/17 07:56:23;;;;;;;4.82;2.35;;;3.80;99.90;;;;;;4898021;29;20207;-74
2021/03/17 07:58:51;;;;;;;4.07;3.00;;;3.90;99.90;;;;;;4898892;29;20543;-72
2021/03/17 08:01:17;;;;;;;2.65;2.42;;;4.00;99.90;;;;;;4898229;29;20553;-72
2021/03/17 08:03:46;;;;;;;9.38;3.58;;;4.10;99.90;;;;;;4902462;29;20215;-72
2021/03/17 08:06:15;;;;;;;3.40;2.80;;;4.20;99.90;;;;;;4902499;29;20222;-73
2021/03/17 08:08:43;;;;;;;3.63;3.42;;;4.20;99.90;;;;;;4904060;29;20211;-73
2021/03/17 08:11:11;;;;;;;8.30;3.50;;;4.30;99.90;;;;;;4885063;29;20278;-73
2021/03/17 08:13:40;;;;;;;7.28;2.90;;;4.40;99.90;;;;;;4900223;29;20226;-73
2021/03/17 08:16:08;;;;;;;5.30;2.40;;;4.50;99.90;;;;;;4899672;29;20274;-73
2021/03/17 08:18:42;;;;;;;4.47;2.90;;;4.60;99.90;;;;;;4897699;29;20267;-73
2021/03/17 08:21:08;;;;;;;2.88;2.67;;;4.70;99.90;;;;;;4897259;29;20226;-74
2021/03/17 08:23:43;;;;;;;3.70;2.40;;;4.80;99.90;;;;;;4894954;29;20713;-73
2021/03/17 08:26:11;;;;;;;3.67;3.38;;;4.80;99.90;;;;;;4896909;29;20679;-73
2021/03/17 08:28:56;;;;;;;5.95;2.67;;;4.90;99.90;;;;;;4895816;29;20214;-73
2021/03/17 08:31:51;;;;;;;5.20;2.95;;;5.00;99.90;;;;;;4896315;29;20235;-73
2021/03/17 08:34:25;;;;;;;19.38;8.48;;;5.10;99.90;;;;;;4896781;29;20222;-73
2021/03/17 08:36:52;;;;;;;7.18;3.90;;;5.20;99.90;;;;;;4892988;29;20207;-73
2021/03/17 08:39:39;;;;;;;3.45;2.90;;;5.30;99.90;;;;;;4896903;29;20215;-72
2021/03/17 08:42:07;;;;;;;8.27;4.00;;;5.40;99.90;;;;;;4892333;29;20279;-73
2021/03/17 08:44:43;;;;;;;11.30;6.43;;;5.40;99.90;;;;;;4895441;29;20556;-72
2021/03/17 08:47:15;;;;;;;5.10;2.55;;;5.50;99.90;;;;;;4879213;29;20203;-75
2021/03/17 08:49:42;;;;;;;4.95;2.50;;;5.60;99.90;;;;;;4878224;29;20554;-73
2021/03/17 08:52:10;;;;;;;4.78;2.75;;;5.60;99.90;;;;;;4877456;29;20239;-73
2021/03/17 08:55:12;;;;;;;7.13;3.20;;;5.50;99.90;;;;;;4877970;29;20208;-73
2021/03/17 08:58:00;;;;;;;5.40;3.80;;;5.50;99.90;;;;;;4877517;29;20242;-73
2021/03/17 09:00:46;;;;;;;4.00;3.38;;;5.50;99.90;;;;;;4888022;29;20271;-73
2021/03/17 09:03:40;;;;;;;6.90;3.53;;;5.50;99.90;;;;;;4896378;29;20632;-72
2021/03/17 09:06:10;;;;;;;7.00;4.00;;;5.60;99.90;;;;;;4896346;29;20367;-72
2021/03/17 09:08:54;;;;;;;8.27;6.95;;;5.50;99.90;;;;;;4896389;29;20541;-72
2021/03/17 09:11:53;;;;;;;7.72;6.93;;;5.40;99.90;;;;;;4896461;29;20227;-72
2021/03/17 09:14:23;;;;;;;3.63;3.33;;;5.40;99.90;;;;;;4896260;29;20222;-73
2021/03/17 09:17:15;;;;;;;4.15;3.15;;;5.30;99.90;;;;;;4896771;29;20226;-73
2021/03/17 09:20:12;;;;;;;3.53;2.97;;;5.40;99.90;;;;;;4896421;29;20219;-73
2021/03/17 09:22:42;;;;;;;3.38;2.95;;;5.60;99.90;;;;;;4896258;29;20297;-73
2021/03/17 09:25:18;;;;;;;3.05;2.70;;;5.70;99.90;;;;;;4896582;29;20223;-72
2021/03/17 09:27:46;;;;;;;6.00;3.25;;;5.80;99.90;;;;;;4896401;29;20222;-72
2021/03/17 09:30:15;;;;;;;3.70;3.40;;;5.90;99.90;;;;;;4896505;29;20275;-73
2021/03/17 09:32:41;;;;;;;7.45;3.30;;;6.10;99.90;;;;;;4896304;29;20248;-73
2021/03/17 09:35:08;;;;;;;5.25;3.58;;;6.30;99.90;;;;;;4896096;29;20207;-72
2021/03/17 09:37:34;;;;;;;5.97;3.00;;;6.40;99.90;;;;;;4896171;29;20552;-72
2021/03/17 09:40:01;;;;;;;4.80;3.28;;;6.40;99.90;;;;;;4896586;29;20211;-72
2021/03/17 09:42:27;;;;;;;6.13;3.55;;;6.50;99.90;;;;;;4895826;29;20231;-72
2021/03/17 09:44:57;;;;;;;4.90;3.30;;;6.60;99.90;;;;;;4896349;29;20278;-74
2021/03/17 09:47:28;;;;;;;5.38;3.30;;;6.70;99.90;;;;;;4895999;29;20226;-74
2021/03/17 09:49:55;;;;;;;8.75;4.15;;;6.80;99.90;;;;;;4895648;29;20577;-73
2021/03/17 09:52:22;;;;;;;3.60;3.30;;;6.90;99.90;;;;;;4895529;29;20326;-74
2021/03/17 09:54:48;;;;;;;3.67;3.45;;;7.00;99.90;;;;;;4899230;29;20211;-74
2021/03/17 09:57:15;;;;;;;4.65;3.17;;;7.00;99.90;;;;;;4899348;29;20218;-73
2021/03/17 09:59:42;;;;;;;3.47;3.33;;;7.10;99.90;;;;;;4899199;29;20271;-72
2021/03/17 10:02:11;;;;;;;4.13;3.55;;;7.10;99.90;;;;;;4899074;29;20681;-72
2021/03/17 10:04:42;;;;;;;11.15;4.20;;;7.20;99.90;;;;;;4899088;29;20258;-75
2021/03/17 10:07:10;;;;;;;7.80;4.55;;;7.20;99.90;;;;;;4899314;29;20692;-75
2021/03/17 10:09:38;;;;;;;6.07;3.60;;;7.20;99.90;;;;;;4899433;29;20207;-75
2021/03/17 10:12:07;;;;;;;5.45;4.68;;;7.30;99.90;;;;;;4898476;29;20680;-74
2021/03/17 10:14:35;;;;;;;4.55;4.15;;;7.40;99.90;;;;;;4899234;29;20218;-75
2021/03/17 10:17:03;;;;;;;5.25;4.45;;;7.50;99.90;;;;;;4899256;29;20211;-75
2021/03/17 10:19:29;;;;;;;6.65;4.60;;;7.50;99.90;;;;;;4899160;29;20358;-75
2021/03/17 10:21:57;;;;;;;6.72;4.15;;;7.50;99.90;;;;;;4899186;29;20732;-75
2021/03/17 10:24:32;;;;;;;5.95;4.40;;;7.50;99.90;;;;;;4899206;29;20248;-75
2021/03/17 10:27:00;;;;;;;7.55;4.13;;;7.60;99.90;;;;;;4898759;29;20211;-75
2021/03/17 10:29:26;;;;;;;5.85;3.85;;;7.50;99.90;;;;;;4900221;29;20215;-74
2021/03/17 10:31:55;;;;;;;5.00;4.15;;;7.50;99.90;;;;;;4899748;29;20322;-74
2021/03/17 10:34:25;;;;;;;4.90;3.80;;;7.50;99.90;;;;;;4898566;29;20271;-74
2021/03/17 10:36:53;;;;;;;8.60;5.30;;;7.50;99.90;;;;;;4897119;29;20219;-74
2021/03/17 10:39:25;;;;;;;4.93;4.50;;;7.40;99.90;;;;;;4899316;29;20567;-74
2021/03/17 10:41:51;;;;;;;12.40;4.63;;;7.40;99.90;;;;;;4898197;29;20318;-71
2021/03/17 10:44:19;;;;;;;4.82;4.43;;;7.40;99.90;;;;;;4890932;29;20228;-70
2021/03/17 10:46:59;;;;;;;4.72;3.78;;;7.30;99.90;;;;;;4880087;29;20219;-69
2021/03/17 10:49:26;;;;;;;7.50;4.40;;;7.50;99.90;;;;;;4889574;29;20211;-70
2021/03/17 10:51:52;;;;;;;11.13;4.13;;;7.50;99.90;;;;;;4897961;29;20677;-71
2021/03/17 10:54:28;;;;;;;5.75;4.15;;;7.50;99.90;;;;;;4898273;29;20294;-70
2021/03/17 10:56:56;;;;;;;4.20;3.60;;;7.50;99.90;;;;;;4890921;29;20195;-70
2021/03/17 10:59:30;;;;;;;4.60;3.95;;;7.50;99.90;;;;;;4888211;29;20295;-70
2021/03/17 11:02:18;;;;;;;5.47;4.20;;;7.50;99.90;;;;;;4879749;29;20663;-70
2021/03/17 11:05:11;;;;;;;7.68;4.53;;;7.50;99.90;;;;;;4894582;29;20211;-70
2021/03/17 11:07:51;;;;;;;6.10;4.80;;;7.50;99.90;;;;;;4898093;29;20549;-71
2021/03/17 11:10:43;;;;;;;6.28;5.65;;;7.50;99.90;;;;;;4897304;29;20211;-71
2021/03/17 11:13:37;;;;;;;6.80;5.20;;;7.60;99.90;;;;;;4897244;29;20322;-71
2021/03/17 11:16:26;;;;;;;7.55;6.30;;;7.70;99.90;;;;;;4864714;29;20223;-71
2021/03/17 11:18:55;;;;;;;6.85;6.15;;;7.80;99.90;;;;;;4898451;29;20207;-71
2021/03/17 11:21:27;;;;;;;7.55;5.85;;;7.80;99.90;;;;;;4896063;29;20275;-71
2021/03/17 11:23:56;;;;;;;5.47;4.82;;;7.80;99.90;;;;;;4890228;29;20223;-71
2021/03/17 11:26:26;;;;;;;10.82;5.97;;;7.70;99.90;;;;;;4896431;29;20263;-71
2021/03/17 11:28:54;;;;;;;10.25;6.30;;;7.80;99.90;;;;;;4881597;29;20218;-71
2021/03/17 11:31:30;;;;;;;6.10;5.57;;;7.90;99.90;;;;;;4897895;29;20698;-71
2021/03/17 11:33:57;;;;;;;7.35;6.20;;;8.10;99.90;;;;;;4893596;29;20219;-71
2021/03/17 11:36:25;;;;;;;6.72;5.57;;;8.20;99.90;;;;;;4896920;29;20208;-72
2021/03/17 11:38:51;;;;;;;7.25;5.80;;;8.30;99.90;;;;;;4898527;29;20222;-71
2021/03/17 11:41:19;;;;;;;9.57;5.85;;;8.30;99.90;;;;;;4898424;29;20227;-71
2021/03/17 11:43:46;;;;;;;6.90;5.72;;;8.40;99.90;;;;;;4878870;29;20222;-71
2021/03/17 11:46:13;;;;;;;7.40;6.80;;;8.30;99.90;;;;;;4879148;29;20230;-72
2021/03/17 11:48:40;;;;;;;5.78;5.28;;;8.30;99.90;;;;;;4894771;29;20207;-71
2021/03/17 11:51:08;;;;;;;6.63;5.10;;;8.30;99.90;;;;;;4896841;29;20227;-71
2021/03/17 11:53:35;;;;;;;5.95;5.32;;;8.40;99.90;;;;;;4893886;29;20207;-72
2021/03/17 11:56:02;;;;;;;8.75;6.50;;;8.40;99.90;;;;;;4897441;29;20212;-72
2021/03/17 11:58:29;;;;;;;7.82;5.40;;;8.60;99.90;;;;;;4891845;29;20263;-72
2021/03/17 12:00:56;;;;;;;4.90;4.50;;;8.80;99.90;;;;;;4897120;29;20263;-71
2021/03/17 12:03:22;;;;;;;3.05;2.85;;;9.00;99.90;;;;;;4892467;29;20199;-71
2021/03/17 12:05:50;;;;;;;4.65;4.32;;;8.90;99.90;;;;;;4896545;29;20207;-71
2021/03/17 12:08:17;;;;;;;4.43;4.03;;;8.80;99.90;;;;;;4892340;29;20265;-71
2021/03/17 12:10:45;;;;;;;6.63;4.75;;;8.80;99.90;;;;;;4894112;29;20234;-71
2021/03/17 12:13:11;;;;;;;10.25;4.55;;;8.80;99.90;;;;;;4893349;29;20708;-71
2021/03/17 12:15:37;;;;;;;4.30;4.03;;;8.70;99.90;;;;;;4896882;29;20662;-72
2021/03/17 12:18:05;;;;;;;4.80;4.20;;;8.60;99.90;;;;;;4897154;29;20211;-70
2021/03/17 12:20:32;;;;;;;4.25;3.90;;;8.50;99.90;;;;;;4896573;29;20231;-70
2021/03/17 12:22:59;;;;;;;7.47;4.30;;;8.40;99.90;;;;;;4888086;29;20377;-70
2021/03/17 12:25:25;;;;;;;5.53;4.30;;;8.40;99.90;;;;;;4888069;29;20203;-72
2021/03/17 12:27:51;;;;;;;5.05;3.90;;;8.20;99.90;;;;;;4896694;29;20267;-71
2021/03/17 12:30:20;;;;;;;4.07;3.83;;;8.00;99.90;;;;;;4895948;29;20207;-71
2021/03/17 12:32:46;;;;;;;4.20;3.90;;;8.00;99.90;;;;;;4892869;29;20269;-70
2021/03/17 12:35:15;;;;;;;6.10;3.65;;;8.00;99.90;;;;;;4895752;29;20583;-72
2021/03/17 12:37:44;;;;;;;4.15;3.75;;;8.00;99.90;;;;;;4896647;29;20668;-72
2021/03/17 12:40:13;;;;;;;4.57;4.25;;;8.00;99.90;;;;;;4896649;29;20207;-71
2021/03/17 12:42:39;;;;;;;4.10;3.80;;;8.00;99.90;;;;;;4895584;29;20634;-71
2021/03/17 12:45:08;;;;;;;4.30;2.85;;;8.00;99.90;;;;;;4896984;29;20226;-70
2021/03/17 12:47:34;;;;;;;3.40;3.10;;;8.00;99.90;;;;;;4895900;29;20218;-71
2021/03/17 12:50:01;;;;;;;3.42;3.22;;;8.10;99.90;;;;;;4895765;29;20222;-70
2021/03/17 12:52:28;;;;;;;4.40;4.10;;;8.10;99.90;;;;;;4890947;29;20262;-70
2021/03/17 12:54:54;;;;;;;4.72;4.10;;;8.10;99.90;;;;;;4894331;29;20211;-70
2021/03/17 12:57:20;;;;;;;5.15;4.15;;;8.10;99.90;;;;;;4877289;29;20263;-70
2021/03/17 12:59:46;;;;;;;3.85;3.33;;;8.20;99.90;;;;;;4881296;29;20204;-72
2021/03/17 13:02:13;;;;;;;4.20;3.80;;;8.40;99.90;;;;;;4881483;29;20241;-71
2021/03/17 13:04:39;;;;;;;6.35;4.13;;;8.60;99.90;;;;;;4894456;29;20275;-71
2021/03/17 13:07:07;;;;;;;5.30;4.43;;;8.70;99.90;;;;;;4883802;29;20208;-71
2021/03/17 13:09:34;;;;;;;4.85;4.35;;;8.70;99.90;;;;;;4877402;29;20216;-71
2021/03/17 13:12:00;;;;;;;4.80;4.30;;;8.70;99.90;;;;;;4895821;29;20235;-70
2021/03/17 13:14:27;;;;;;;3.97;3.63;;;8.70;99.90;;;;;;4896209;29;20219;-72
2021/03/17 13:16:53;;;;;;;4.35;4.05;;;8.70;99.90;;;;;;4896313;29;20218;-72
2021/03/17 13:19:20;;;;;;;10.30;7.75;;;8.70;99.90;;;;;;4896172;29;20648;-70
2021/03/17 13:21:49;;;;;;;3.25;3.05;;;8.80;99.90;;;;;;4895597;29;20223;-72
2021/03/17 13:24:15;;;;;;;4.30;3.90;;;8.80;99.90;;;;;;4896242;29;20212;-73
2021/03/17 13:26:42;;;;;;;4.07;3.55;;;8.80;99.90;;;;;;4895880;29;20215;-72
2021/03/17 13:29:08;;;;;;;3.40;3.30;;;8.80;99.90;;;;;;4898623;29;20227;-71
2021/03/17 13:31:34;;;;;;;9.23;4.35;;;8.80;99.90;;;;;;4899777;29;20572;-71
2021/03/17 13:34:01;;;;;;;3.70;3.33;;;8.90;99.90;;;;;;4899324;29;20227;-72
2021/03/17 13:36:27;;;;;;;5.38;5.07;;;9.00;99.90;;;;;;4899549;29;20207;-72
2021/03/17 13:38:53;;;;;;;3.80;3.50;;;9.10;99.90;;;;;;4899754;29;20680;-72
2021/03/17 13:41:20;;;;;;;4.18;3.15;;;9.20;99.90;;;;;;4899634;29;20729;-71
2021/03/17 13:43:47;;;;;;;3.42;3.08;;;9.40;99.90;;;;;;4899281;29;20215;-71
2021/03/17 13:46:14;;;;;;;3.88;3.58;;;9.50;99.90;;;;;;4899792;29;20206;-70
2021/03/17 13:48:40;;;;;;;3.28;3.00;;;9.60;99.90;;;;;;4899687;29;20219;-73
2021/03/17 13:51:06;;;;;;;3.17;2.97;;;9.70;99.90;;;;;;4898924;29;20716;-72
2021/03/17 13:53:33;;;;;;;3.22;3.10;;;9.70;99.90;;;;;;4899205;29;20306;-73
2021/03/17 13:56:01;;;;;;;2.65;2.55;;;9.60;99.90;;;;;;4899734;29;20211;-73
2021/03/17 13:58:28;;;;;;;3.50;3.30;;;9.50;99.90;;;;;;4899217;29;20223;-72
2021/03/17 14:00:55;;;;;;;3.58;3.28;;;9.20;99.90;;;;;;4899158;29;20727;-72
2021/03/17 14:03:22;;;;;;;3.63;3.42;;;9.00;99.90;;;;;;4898930;29;20215;-72
2021/03/17 14:05:48;;;;;;;4.15;3.85;;;8.80;99.90;;;;;;4899101;29;20252;-72
2021/03/17 14:08:15;;;;;;;5.40;3.83;;;8.70;99.90;;;;;;4898870;29;20207;-71
2021/03/17 14:10:42;;;;;;;4.25;3.80;;;8.50;99.90;;;;;;4899409;29;20230;-72
2021/03/17 14:13:09;;;;;;;4.07;3.65;;;8.40;99.90;;;;;;4898660;29;20650;-72
2021/03/17 14:15:36;;;;;;;3.05;2.75;;;8.30;99.90;;;;;;4899206;29;20211;-72
2021/03/17 14:18:04;;;;;;;3.08;2.97;;;8.20;99.90;;;;;;4899040;29;20728;-71
2021/03/17 14:20:31;;;;;;;3.72;3.42;;;8.10;99.90;;;;;;4899014;29;20235;-71
2021/03/17 14:22:59;;;;;;;4.57;3.53;;;8.00;99.90;;;;;;4899058;29;20215;-71
2021/03/17 14:25:26;;;;;;;4.72;2.50;;;8.00;99.90;;;;;;4899188;29;20207;-71
2021/03/17 14:27:53;;;;;;;3.70;3.50;;;7.90;99.90;;;;;;4898594;29;20214;-71
2021/03/17 14:30:21;;;;;;;3.10;2.90;;;7.90;99.90;;;;;;4898824;29;20651;-70
2021/03/17 14:32:47;;;;;;;2.83;2.72;;;7.90;99.90;;;;;;4898660;29;20637;-71
2021/03/17 14:35:15;;;;;;;2.40;2.40;;;8.00;99.90;;;;;;4898444;29;20241;-71
2021/03/17 14:37:41;;;;;;;4.20;2.33;;;8.10;99.90;;;;;;4898607;29;20928;-72
2021/03/17 14:40:11;;;;;;;4.22;2.50;;;8.10;99.90;;;;;;4897309;29;20683;-71
2021/03/17 14:42:37;;;;;;;2.08;1.98;;;8.20;99.90;;;;;;4897532;29;20199;-73
2021/03/17 14:45:04;;;;;;;2.63;2.53;;;8.30;99.90;;;;;;4898804;29;20234;-71
2021/03/17 14:47:31;;;;;;;3.55;3.40;;;8.40;99.90;;;;;;4896565;29;20207;-70
2021/03/17 14:49:57;;;;;;;1.60;1.60;;;8.40;99.90;;;;;;4897612;29;20219;-69
2021/03/17 14:52:24;;;;;;;1.50;1.40;;;8.60;99.90;;;;;;4897581;29;20231;-70
2021/03/17 14:54:50;;;;;;;2.80;2.60;;;8.70;99.90;;;;;;4898004;29;20214;-70
2021/03/17 14:57:17;;;;;;;1.98;1.98;;;8.70;99.90;;;;;;4887807;29;20545;-70
2021/03/17 14:59:43;;;;;;;3.30;3.17;;;8.80;99.90;;;;;;4893816;29;20208;-70
2021/03/17 15:02:10;;;;;;;2.90;2.80;;;8.80;99.90;;;;;;4890470;29;20247;-70
2021/03/17 15:04:36;;;;;;;2.28;2.17;;;8.80;99.90;;;;;;4897539;29;20215;-70
2021/03/17 15:07:02;;;;;;;2.50;2.40;;;8.80;99.90;;;;;;4892370;29;20219;-70
2021/03/17 15:09:29;;;;;;;2.05;1.95;;;8.90;99.90;;;;;;4897907;29;20734;-70
2021/03/17 15:11:56;;;;;;;1.80;1.70;;;8.80;99.90;;;;;;4897680;29;20238;-71
2021/03/17 15:14:23;;;;;;;1.75;1.65;;;8.80;99.90;;;;;;4897858;29;20226;-70
2021/03/17 15:16:50;;;;;;;3.60;2.60;;;8.80;99.90;;;;;;4892962;29;20238;-71
2021/03/17 15:19:16;;;;;;;2.05;2.05;;;8.70;99.90;;;;;;4898697;29;20251;-72
2021/03/17 15:21:42;;;;;;;2.70;2.58;;;8.70;99.90;;;;;;4892228;29;20238;-72
2021/03/17 15:24:09;;;;;;;2.70;2.60;;;8.60;99.90;;;;;;4890968;29;20218;-72
2021/03/17 15:26:36;;;;;;;2.22;2.08;;;8.60;99.90;;;;;;4882408;29;20216;-73
2021/03/17 15:29:03;;;;;;;2.40;2.30;;;8.60;99.90;;;;;;4894139;29;20219;-71
2021/03/17 15:31:29;;;;;;;3.10;2.97;;;8.50;99.90;;;;;;4896917;29;20227;-71
2021/03/17 15:33:56;;;;;;;2.65;2.50;;;8.40;99.90;;;;;;4884224;29;20361;-71
2021/03/17 15:36:22;;;;;;;3.88;3.00;;;8.20;99.90;;;;;;4887494;29;20214;-73
2021/03/17 15:38:49;;;;;;;2.60;2.42;;;8.10;99.90;;;;;;4894219;29;20211;-70
2021/03/17 15:41:15;;;;;;;2.47;2.38;;;8.10;99.90;;;;;;4897082;29;20707;-71
2021/03/17 15:43:43;;;;;;;2.13;2.13;;;8.10;99.90;;;;;;4895086;29;20619;-70
2021/03/17 15:46:09;;;;;;;2.28;1.98;;;8.00;99.90;;;;;;4896525;29;20210;-71
2021/03/17 15:48:35;;;;;;;1.45;1.45;;;7.90;99.90;;;;;;4897392;29;20204;-71
2021/03/17 15:51:01;;;;;;;1.58;1.48;;;7.80;99.90;;;;;;4892083;29;20654;-71
2021/03/17 15:53:27;;;;;;;1.80;1.45;;;7.80;99.90;;;;;;4886075;29;20242;-71
2021/03/17 15:55:54;;;;;;;1.65;1.60;;;7.70;99.90;;;;;;4896642;29;20689;-71
2021/03/17 15:58:21;;;;;;;1.80;1.65;;;7.60;99.90;;;;;;4896502;29;20203;-72
2021/03/17 16:00:49;;;;;;;2.25;2.05;;;7.50;99.90;;;;;;4896545;29;20235;-72
2021/03/17 16:03:18;;;;;;;1.90;1.80;;;7.40;99.90;;;;;;4895961;29;20215;-71
2021/03/17 16:05:44;;;;;;;2.78;1.90;;;7.40;99.90;;;;;;4896062;29;20358;-71
2021/03/17 16:08:10;;;;;;;2.58;2.35;;;7.40;99.90;;;;;;4896650;29;20211;-71
2021/03/17 16:10:36;;;;;;;2.45;2.35;;;7.30;99.90;;;;;;4896483;29;20223;-70
2021/03/17 16:13:03;;;;;;;2.55;2.35;;;7.20;99.90;;;;;;4894400;29;20250;-70
2021/03/17 16:15:29;;;;;;;2.55;2.45;;;7.20;99.90;;;;;;4895781;29;20619;-71
2021/03/17 16:17:57;;;;;;;2.63;2.50;;;7.10;99.90;;;;;;4896462;29;20207;-74
2021/03/17 16:20:25;;;;;;;2.15;2.15;;;7.10;99.90;;;;;;4895955;29;20297;-72
2021/03/17 16:22:52;;;;;;;4.47;4.20;;;7.00;99.90;;;;;;4895648;29;20575;-72
2021/03/17 16:25:19;;;;;;;2.72;2.63;;;7.00;99.90;;;;;;4896207;29;20215;-71
2021/03/17 16:27:45;;;;;;;3.15;2.95;;;7.00;99.90;;;;;;4895519;29;20210;-72
2021/03/17 16:30:13;;;;;;;4.03;3.63;;;7.00;99.90;;;;;;4896264;29;20215;-72
2021/03/17 16:32:41;;;;;;;2.33;2.22;;;7.00;99.90;;;;;;4894781;29;20227;-70
2021/03/17 16:35:10;;;;;;;3.03;2.83;;;6.90;99.90;;;;;;4895295;29;20219;-72
2021/03/17 16:37:36;;;;;;;3.30;3.08;;;6.90;99.90;;;;;;4895885;29;20199;-72
2021/03/17 16:40:04;;;;;;;4.18;2.70;;;6.80;99.90;;;;;;4895204;29;20215;-72
2021/03/17 16:42:30;;;;;;;2.67;2.58;;;6.80;99.90;;;;;;4894438;29;20246;-73
2021/03/17 16:44:56;;;;;;;2.95;2.78;;;6.80;99.90;;;;;;4891240;29;20226;-72
2021/03/17 16:47:22;;;;;;;2.80;2.60;;;6.80;99.90;;;;;;4886710;29;20592;-72
2021/03/17 16:49:49;;;;;;;2.97;2.88;;;6.80;99.90;;;;;;4891806;29;20526;-74
2021/03/17 16:52:16;;;;;;;3.72;3.10;;;6.90;99.90;;;;;;4894881;29;20230;-73
2021/03/17 16:54:42;;;;;;;4.00;3.60;;;6.90;99.90;;;;;;4895149;29;20203;-73
2021/03/17 16:57:08;;;;;;;4.00;3.80;;;6.90;99.90;;;;;;4893744;29;20223;-73
2021/03/17 16:59:34;;;;;;;6.45;6.05;;;6.90;99.90;;;;;;4896326;29;20226;-73
2021/03/17 17:02:01;;;;;;;4.30;4.10;;;6.90;99.90;;;;;;4895408;29;20238;-73
2021/03/17 17:04:27;;;;;;;3.60;3.30;;;6.90;99.90;;;;;;4895271;29;20207;-73
2021/03/17 17:06:54;;;;;;;4.50;4.13;;;6.80;99.90;;;;;;4898879;29;20234;-73
2021/03/17 17:09:21;;;;;;;3.95;3.60;;;6.80;99.90;;;;;;4899627;29;20202;-72
2021/03/17 17:11:47;;;;;;;4.55;4.25;;;6.70;99.90;;;;;;4898395;29;20287;-75
2021/03/17 17:14:14;;;;;;;4.40;4.10;;;6.70;99.90;;;;;;4899391;29;20215;-73
2021/03/17 17:16:40;;;;;;;12.55;10.75;;;6.70;99.90;;;;;;4899672;29;20230;-72
2021/03/17 17:19:06;;;;;;;21.17;17.23;;;6.60;99.90;;;;;;4898882;29;20368;-71
2021/03/17 17:21:32;;;;;;;11.93;10.73;;;6.60;99.90;;;;;;4881783;29;20231;-71
2021/03/17 17:23:58;;;;;;;7.57;6.68;;;6.50;99.90;;;;;;4881590;29;20235;-72
2021/03/17 17:26:26;;;;;;;5.50;5.15;;;6.40;99.90;;;;;;4899726;29;20302;-72
2021/03/17 17:28:53;;;;;;;5.40;4.90;;;6.40;99.90;;;;;;4896586;29;20203;-72
2021/03/17 17:31:19;;;;;;;4.30;4.10;;;6.30;99.90;;;;;;4900117;29;20231;-72
2021/03/17 17:33:46;;;;;;;4.35;4.15;;;6.30;99.90;;;;;;4888621;29;20246;-72
2021/03/17 17:36:13;;;;;;;4.03;3.72;;;6.20;99.90;;;;;;4899831;29;20211;-72
2021/03/17 17:38:40;;;;;;;4.00;3.72;;;6.20;99.90;;;;;;4899790;29;20557;-71
2021/03/17 17:41:06;;;;;;;4.43;4.13;;;6.10;99.90;;;;;;4899648;29;20742;-72
2021/03/17 17:43:33;;;;;;;14.30;12.85;;;6.00;99.90;;;;;;4898624;29;20233;-72
2021/03/17 17:46:00;;;;;;;8.82;8.02;;;5.90;99.90;;;;;;4899958;29;20654;-70
2021/03/17 17:48:26;;;;;;;5.00;4.70;;;5.90;99.90;;;;;;4897177;29;20211;-71
2021/03/17 17:50:53;;;;;;;6.63;6.13;;;5.80;99.90;;;;;;4899115;29;20239;-71
2021/03/17 17:53:19;;;;;;;6.60;6.07;;;5.80;99.90;;;;;;4896963;29;20227;-71
2021/03/17 17:55:46;;;;;;;7.45;5.50;;;5.70;99.90;;;;;;4880967;29;20212;-71
2021/03/17 17:58:12;;;;;;;4.45;4.25;;;5.60;99.90;;;;;;4891849;29;20278;-71
2021/03/17 18:00:40;;;;;;;3.53;3.33;;;5.60;99.90;;;;;;4891059;29;20565;-69
2021/03/17 18:03:06;;;;;;;4.18;3.55;;;5.60;99.90;;;;;;4883491;29;20215;-69
2021/03/17 18:05:33;;;;;;;3.50;3.30;;;5.50;99.90;;;;;;4897783;29;20218;-70